WXM80 ListenWXM80 Stop

You find our weather info also at:

UK Metoffice

WeatherCloud

Weather Underground

Northeastern Weather Network

AWEKAS

Citizen Weather Observer Program (CWOP)

HAMweather, WeatherForYou, PWS Weather


Weather Underground History page Text

Daily Summary for January 15, 2018 Units:  Both    English   Metric
« Previous Day
Next Day »
Daily Weekly Monthly Yearly Custom
  High: Low: Average:
Temperature: 27.0 °F /  -2.8 °C 18.2 °F /  -7.7 °C 22.9 °F /  -5.1 °C
Dew Point: 22.8 °F /  -5.1 °C 10.5 °F /  -11.9 °C 16.8 °F /  -8.4 °C
Humidity: 86 % 70 % 77 %
Wind Speed: 9.7 mph /  15.6 km/h - 5.3 mph /  8.5 km/h
Wind Gust: 13.8 mph /  22.2 km/h - -
Wind:- - ENE
Pressure: 30.45 in /  1031 hPa 30.25 in /  1024.3 hPa -
Precipitation: 0.00 in /  0 mm    
Historical Graphs
 
 
Tabular Data for January 15, 2018
Time Temperature Dew Point Pressure Wind Wind Speed Wind Gust Humidity Rainfall Rate (Hourly)
00:01 19.2 °F /  -7.1 °C 11.3 °F /  -11.5 °C 30.42 in /  1030 hPa NNE 6.0 mph /  9.7 km/h 11.5 mph /  18.5 km/h 71 % 0.00 in /  0 mm
00:07 19.2 °F /  -7.1 °C 11.3 °F /  -11.5 °C 30.42 in /  1030 hPa NE 5.6 mph /  9 km/h 9.2 mph /  14.8 km/h 71 % 0.00 in /  0 mm
00:12 19.1 °F /  -7.2 °C 10.9 °F /  -11.7 °C 30.42 in /  1030 hPa NNE 5.6 mph /  9 km/h 12.7 mph /  20.4 km/h 70 % 0.00 in /  0 mm
00:21 19.1 °F /  -7.2 °C 11.2 °F /  -11.6 °C 30.42 in /  1030 hPa NNE 4.9 mph /  7.9 km/h 6.9 mph /  11.1 km/h 71 % 0.00 in /  0 mm
00:32 19.0 °F /  -7.2 °C 10.8 °F /  -11.8 °C 30.43 in /  1030.4 hPa NNE 4.7 mph /  7.6 km/h 9.2 mph /  14.8 km/h 70 % 0.00 in /  0 mm
00:42 18.9 °F /  -7.3 °C 10.7 °F /  -11.8 °C 30.42 in /  1030 hPa ENE 4.8 mph /  7.7 km/h 9.2 mph /  14.8 km/h 70 % 0.00 in /  0 mm
00:49 18.8 °F /  -7.3 °C 10.6 °F /  -11.9 °C 30.42 in /  1030 hPa North 6.1 mph /  9.8 km/h 11.5 mph /  18.5 km/h 70 % 0.00 in /  0 mm
00:58 18.8 °F /  -7.3 °C 10.9 °F /  -11.7 °C 30.42 in /  1030 hPa NE 8.2 mph /  13.2 km/h 12.7 mph /  20.4 km/h 71 % 0.00 in /  0 mm
01:03 18.7 °F /  -7.4 °C 10.5 °F /  -11.9 °C 30.42 in /  1030 hPa NE 8.6 mph /  13.8 km/h 12.7 mph /  20.4 km/h 70 % 0.00 in /  0 mm
01:14 18.7 °F /  -7.4 °C 10.5 °F /  -11.9 °C 30.43 in /  1030.4 hPa NNE 6.2 mph /  10 km/h 13.8 mph /  22.2 km/h 70 % 0.00 in /  0 mm
01:20 18.6 °F /  -7.4 °C 10.8 °F /  -11.8 °C 30.43 in /  1030.4 hPa NE 6.4 mph /  10.3 km/h 12.0 mph /  19.3 km/h 71 % 0.00 in /  0 mm
01:29 18.6 °F /  -7.4 °C 10.8 °F /  -11.8 °C 30.43 in /  1030.4 hPa ENE 6.5 mph /  10.5 km/h 11.0 mph /  17.7 km/h 71 % 0.00 in /  0 mm
01:35 18.7 °F /  -7.4 °C 10.5 °F /  -11.9 °C 30.43 in /  1030.4 hPa ENE 6.1 mph /  9.8 km/h 11.5 mph /  18.5 km/h 70 % 0.00 in /  0 mm
01:41 18.8 °F /  -7.3 °C 10.9 °F /  -11.7 °C 30.43 in /  1030.4 hPa ENE 9.0 mph /  14.5 km/h 13.0 mph /  20.9 km/h 71 % 0.00 in /  0 mm
01:46 18.8 °F /  -7.3 °C 11.0 °F /  -11.7 °C 30.44 in /  1030.7 hPa NE 3.0 mph /  4.8 km/h 12.0 mph /  19.3 km/h 71 % 0.00 in /  0 mm
01:51 18.8 °F /  -7.3 °C 11.0 °F /  -11.7 °C 30.43 in /  1030.4 hPa NE 6.0 mph /  9.7 km/h 12.0 mph /  19.3 km/h 71 % 0.00 in /  0 mm
01:56 18.8 °F /  -7.3 °C 10.6 °F /  -11.9 °C 30.43 in /  1030.4 hPa NE 5.0 mph /  8 km/h 12.0 mph /  19.3 km/h 70 % 0.00 in /  0 mm
02:03 18.9 °F /  -7.3 °C 11.0 °F /  -11.7 °C 30.43 in /  1030.4 hPa ENE 5.8 mph /  9.3 km/h 8.1 mph /  13 km/h 71 % 0.00 in /  0 mm
02:08 18.8 °F /  -7.3 °C 11.3 °F /  -11.5 °C 30.43 in /  1030.4 hPa ENE 4.9 mph /  7.9 km/h 11.5 mph /  18.5 km/h 72 % 0.00 in /  0 mm
02:19 18.9 °F /  -7.3 °C 11.7 °F /  -11.3 °C 30.43 in /  1030.4 hPa NE 4.3 mph /  6.9 km/h 5.8 mph /  9.3 km/h 73 % 0.00 in /  0 mm
02:24 18.9 °F /  -7.3 °C 11.7 °F /  -11.3 °C 30.43 in /  1030.4 hPa ENE 3.7 mph /  6 km/h 9.2 mph /  14.8 km/h 73 % 0.00 in /  0 mm
02:30 18.9 °F /  -7.3 °C 11.7 °F /  -11.3 °C 30.43 in /  1030.4 hPa NE 6.5 mph /  10.5 km/h 9.2 mph /  14.8 km/h 73 % 0.00 in /  0 mm
02:35 18.9 °F /  -7.3 °C 11.7 °F /  -11.3 °C 30.43 in /  1030.4 hPa NE 3.6 mph /  5.8 km/h 6.9 mph /  11.1 km/h 73 % 0.00 in /  0 mm
02:52 18.9 °F /  -7.3 °C 12.0 °F /  -11.1 °C 30.43 in /  1030.4 hPa NE 6.7 mph /  10.8 km/h 10.4 mph /  16.7 km/h 74 % 0.00 in /  0 mm
02:57 19.0 °F /  -7.2 °C 12.1 °F /  -11.1 °C 30.43 in /  1030.4 hPa ENE 8.3 mph /  13.4 km/h 11.5 mph /  18.5 km/h 74 % 0.00 in /  0 mm
03:06 19.0 °F /  -7.2 °C 12.1 °F /  -11.1 °C 30.43 in /  1030.4 hPa NE 5.6 mph /  9 km/h 9.2 mph /  14.8 km/h 74 % 0.00 in /  0 mm
03:15 18.9 °F /  -7.3 °C 12.0 °F /  -11.1 °C 30.43 in /  1030.4 hPa ENE 7.4 mph /  11.9 km/h 11.5 mph /  18.5 km/h 74 % 0.00 in /  0 mm
03:25 18.9 °F /  -7.3 °C 12.3 °F /  -10.9 °C 30.43 in /  1030.4 hPa NE 4.0 mph /  6.4 km/h 4.0 mph /  6.4 km/h 75 % 0.00 in /  0 mm
03:30 18.8 °F /  -7.3 °C 12.5 °F /  -10.8 °C 30.44 in /  1030.7 hPa ENE 6.2 mph /  10 km/h 10.4 mph /  16.7 km/h 76 % 0.00 in /  0 mm
03:36 18.9 °F /  -7.3 °C 12.6 °F /  -10.8 °C 30.44 in /  1030.7 hPa East 6.2 mph /  10 km/h 10.4 mph /  16.7 km/h 76 % 0.00 in /  0 mm
03:42 18.8 °F /  -7.3 °C 12.5 °F /  -10.8 °C 30.44 in /  1030.7 hPa NE 5.8 mph /  9.3 km/h 9.2 mph /  14.8 km/h 76 % 0.00 in /  0 mm
03:47 18.8 °F /  -7.3 °C 12.5 °F /  -10.8 °C 30.44 in /  1030.7 hPa ENE 5.9 mph /  9.5 km/h 10.4 mph /  16.7 km/h 76 % 0.00 in /  0 mm
03:54 18.7 °F /  -7.4 °C 12.4 °F /  -10.9 °C 30.44 in /  1030.7 hPa ENE 6.8 mph /  10.9 km/h 10.4 mph /  16.7 km/h 76 % 0.00 in /  0 mm
03:59 18.6 °F /  -7.4 °C 12.3 °F /  -10.9 °C 30.44 in /  1030.7 hPa NE 4.9 mph /  7.9 km/h 10.4 mph /  16.7 km/h 76 % 0.00 in /  0 mm
04:09 18.5 °F /  -7.5 °C 12.2 °F /  -11 °C 30.44 in /  1030.7 hPa NNE 3.4 mph /  5.5 km/h 8.1 mph /  13 km/h 76 % 0.00 in /  0 mm
04:21 18.3 °F /  -7.6 °C 12.0 °F /  -11.1 °C 30.43 in /  1030.4 hPa ENE 3.1 mph /  5 km/h 10.4 mph /  16.7 km/h 76 % 0.00 in /  0 mm
04:30 18.3 °F /  -7.6 °C 12.3 °F /  -10.9 °C 30.43 in /  1030.4 hPa ENE 5.7 mph /  9.2 km/h 9.2 mph /  14.8 km/h 77 % 0.00 in /  0 mm
04:42 18.3 °F /  -7.6 °C 12.0 °F /  -11.1 °C 30.44 in /  1030.7 hPa NE 3.2 mph /  5.1 km/h 5.0 mph /  8 km/h 76 % 0.00 in /  0 mm
04:47 18.2 °F /  -7.7 °C 11.9 °F /  -11.2 °C 30.44 in /  1030.7 hPa NE 3.2 mph /  5.1 km/h 6.9 mph /  11.1 km/h 76 % 0.00 in /  0 mm
04:52 18.2 °F /  -7.7 °C 11.9 °F /  -11.2 °C 30.44 in /  1030.7 hPa NE 3.6 mph /  5.8 km/h 5.8 mph /  9.3 km/h 76 % 0.00 in /  0 mm
05:01 18.2 °F /  -7.7 °C 11.9 °F /  -11.2 °C 30.44 in /  1030.7 hPa ENE 4.2 mph /  6.8 km/h 10.4 mph /  16.7 km/h 76 % 0.00 in /  0 mm
05:07 18.2 °F /  -7.7 °C 11.9 °F /  -11.2 °C 30.44 in /  1030.7 hPa NNE 5.0 mph /  8 km/h 6.9 mph /  11.1 km/h 76 % 0.00 in /  0 mm
05:17 18.2 °F /  -7.7 °C 11.9 °F /  -11.2 °C 30.44 in /  1030.7 hPa ENE 5.1 mph /  8.2 km/h 9.2 mph /  14.8 km/h 76 % 0.00 in /  0 mm
05:27 18.3 °F /  -7.6 °C 12.3 °F /  -10.9 °C 30.44 in /  1030.7 hPa ENE 5.7 mph /  9.2 km/h 11.5 mph /  18.5 km/h 77 % 0.00 in /  0 mm
05:45 18.7 °F /  -7.4 °C 12.7 °F /  -10.7 °C 30.44 in /  1030.7 hPa ENE 6.8 mph /  10.9 km/h 11.5 mph /  18.5 km/h 77 % 0.00 in /  0 mm
05:52 18.8 °F /  -7.3 °C 13.1 °F /  -10.5 °C 30.44 in /  1030.7 hPa North 3.4 mph /  5.5 km/h 5.8 mph /  9.3 km/h 78 % 0.00 in /  0 mm
05:58 18.8 °F /  -7.3 °C 13.1 °F /  -10.5 °C 30.44 in /  1030.7 hPa NNE 2.4 mph /  3.9 km/h 9.2 mph /  14.8 km/h 78 % 0.00 in /  0 mm
06:06 18.9 °F /  -7.3 °C 13.2 °F /  -10.4 °C 30.44 in /  1030.7 hPa NE 4.6 mph /  7.4 km/h 6.9 mph /  11.1 km/h 78 % 0.00 in /  0 mm
06:14 18.9 °F /  -7.3 °C 13.5 °F /  -10.3 °C 30.45 in /  1031 hPa ENE 3.4 mph /  5.5 km/h 6.9 mph /  11.1 km/h 79 % 0.00 in /  0 mm
06:26 19.1 °F /  -7.2 °C 13.7 °F /  -10.2 °C 30.45 in /  1031 hPa NNE 3.2 mph /  5.1 km/h 8.0 mph /  12.9 km/h 79 % 0.00 in /  0 mm
06:40 19.3 °F /  -7.1 °C 14.1 °F /  -9.9 °C 30.45 in /  1031 hPa ENE 3.7 mph /  6 km/h 5.8 mph /  9.3 km/h 80 % 0.00 in /  0 mm
06:51 19.8 °F /  -6.8 °C 14.6 °F /  -9.7 °C 30.44 in /  1030.7 hPa East 3.5 mph /  5.6 km/h 9.0 mph /  14.5 km/h 80 % 0.00 in /  0 mm
06:56 19.9 °F /  -6.7 °C 14.7 °F /  -9.6 °C 30.45 in /  1031 hPa NE 5.0 mph /  8 km/h 10.0 mph /  16.1 km/h 80 % 0.00 in /  0 mm
07:01 20.1 °F /  -6.6 °C 14.9 °F /  -9.5 °C 30.44 in /  1030.7 hPa ENE 3.4 mph /  5.5 km/h 8.1 mph /  13 km/h 80 % 0.00 in /  0 mm
07:06 20.3 °F /  -6.5 °C 15.1 °F /  -9.4 °C 30.45 in /  1031 hPa ENE 6.0 mph /  9.7 km/h 10.0 mph /  16.1 km/h 80 % 0.00 in /  0 mm
07:11 20.5 °F /  -6.4 °C 15.3 °F /  -9.3 °C 30.45 in /  1031 hPa ENE 6.4 mph /  10.3 km/h 9.2 mph /  14.8 km/h 80 % 0.00 in /  0 mm
07:26 20.8 °F /  -6.2 °C 15.3 °F /  -9.3 °C 30.45 in /  1031 hPa ENE 5.3 mph /  8.5 km/h 8.1 mph /  13 km/h 79 % 0.00 in /  0 mm
07:45 20.8 °F /  -6.2 °C 15.3 °F /  -9.3 °C 30.44 in /  1030.7 hPa ENE 6.6 mph /  10.6 km/h 10.4 mph /  16.7 km/h 79 % 0.00 in /  0 mm
07:50 20.8 °F /  -6.2 °C 15.0 °F /  -9.4 °C 30.45 in /  1031 hPa ENE 5.0 mph /  8 km/h 10.4 mph /  16.7 km/h 78 % 0.00 in /  0 mm
07:56 20.8 °F /  -6.2 °C 15.0 °F /  -9.4 °C 30.45 in /  1031 hPa ENE 6.0 mph /  9.7 km/h 12.0 mph /  19.3 km/h 78 % 0.00 in /  0 mm
08:07 20.8 °F /  -6.2 °C 15.3 °F /  -9.3 °C 30.45 in /  1031 hPa NE 7.1 mph /  11.4 km/h 9.2 mph /  14.8 km/h 79 % 0.00 in /  0 mm
08:17 20.9 °F /  -6.2 °C 15.4 °F /  -9.2 °C 30.45 in /  1031 hPa ENE 6.7 mph /  10.8 km/h 11.5 mph /  18.5 km/h 79 % 0.00 in /  0 mm
08:33 21.2 °F /  -6 °C 15.7 °F /  -9.1 °C 30.44 in /  1030.7 hPa ENE 6.3 mph /  10.1 km/h 10.4 mph /  16.7 km/h 79 % 0.00 in /  0 mm
08:41 21.3 °F /  -5.9 °C 16.1 °F /  -8.8 °C 30.44 in /  1030.7 hPa NE 6.7 mph /  10.8 km/h 11.5 mph /  18.5 km/h 80 % 0.00 in /  0 mm
08:48 21.5 °F /  -5.8 °C 16.0 °F /  -8.9 °C 30.44 in /  1030.7 hPa ENE 6.0 mph /  9.7 km/h 9.2 mph /  14.8 km/h 79 % 0.00 in /  0 mm
08:53 21.5 °F /  -5.8 °C 16.0 °F /  -8.9 °C 30.44 in /  1030.7 hPa ENE 4.0 mph /  6.4 km/h 11.5 mph /  18.5 km/h 79 % 0.00 in /  0 mm
09:00 21.6 °F /  -5.8 °C 16.1 °F /  -8.8 °C 30.44 in /  1030.7 hPa ENE 4.5 mph /  7.2 km/h 10.4 mph /  16.7 km/h 79 % 0.00 in /  0 mm
09:12 21.8 °F /  -5.7 °C 16.3 °F /  -8.7 °C 30.43 in /  1030.4 hPa ENE 7.2 mph /  11.6 km/h 11.5 mph /  18.5 km/h 79 % 0.00 in /  0 mm
09:23 22.4 °F /  -5.3 °C 17.2 °F /  -8.2 °C 30.43 in /  1030.4 hPa ENE 8.6 mph /  13.8 km/h 11.5 mph /  18.5 km/h 80 % 0.00 in /  0 mm
09:38 23.0 °F /  -5 °C 17.5 °F /  -8.1 °C 30.44 in /  1030.7 hPa ENE 6.4 mph /  10.3 km/h 12.7 mph /  20.4 km/h 79 % 0.00 in /  0 mm
09:46 23.2 °F /  -4.9 °C 17.7 °F /  -7.9 °C 30.44 in /  1030.7 hPa NE 2.8 mph /  4.5 km/h 8.1 mph /  13 km/h 79 % 0.00 in /  0 mm
09:52 23.5 °F /  -4.7 °C 17.9 °F /  -7.8 °C 30.44 in /  1030.7 hPa NE 8.3 mph /  13.4 km/h 11.5 mph /  18.5 km/h 79 % 0.00 in /  0 mm
10:00 23.7 °F /  -4.6 °C 18.1 °F /  -7.7 °C 30.44 in /  1030.7 hPa ENE 7.6 mph /  12.2 km/h 10.4 mph /  16.7 km/h 79 % 0.00 in /  0 mm
10:05 23.8 °F /  -4.6 °C 17.9 °F /  -7.8 °C 30.43 in /  1030.4 hPa NE 9.7 mph /  15.6 km/h 11.5 mph /  18.5 km/h 78 % 0.00 in /  0 mm
10:13 23.6 °F /  -4.7 °C 17.4 °F /  -8.1 °C 30.43 in /  1030.4 hPa ENE 8.9 mph /  14.3 km/h 12.0 mph /  19.3 km/h 77 % 0.00 in /  0 mm
10:22 23.6 °F /  -4.7 °C 17.7 °F /  -7.9 °C 30.42 in /  1030 hPa ENE 9.1 mph /  14.6 km/h 13.8 mph /  22.2 km/h 78 % 0.00 in /  0 mm
10:29 23.7 °F /  -4.6 °C 17.8 °F /  -7.9 °C 30.43 in /  1030.4 hPa ENE 8.5 mph /  13.7 km/h 11.5 mph /  18.5 km/h 78 % 0.00 in /  0 mm
10:37 23.9 °F /  -4.5 °C 18.3 °F /  -7.6 °C 30.43 in /  1030.4 hPa East 8.3 mph /  13.4 km/h 13.8 mph /  22.2 km/h 79 % 0.00 in /  0 mm
10:44 24.1 °F /  -4.4 °C 18.5 °F /  -7.5 °C 30.42 in /  1030 hPa ENE 8.5 mph /  13.7 km/h 12.0 mph /  19.3 km/h 79 % 0.00 in /  0 mm
11:00 24.3 °F /  -4.3 °C 18.7 °F /  -7.4 °C 30.41 in /  1029.7 hPa ENE 7.6 mph /  12.2 km/h 11.5 mph /  18.5 km/h 79 % 0.00 in /  0 mm
11:06 24.5 °F /  -4.2 °C 18.9 °F /  -7.3 °C 30.41 in /  1029.7 hPa NE 5.5 mph /  8.9 km/h 9.0 mph /  14.5 km/h 79 % 0.00 in /  0 mm
11:12 24.6 °F /  -4.1 °C 19.0 °F /  -7.2 °C 30.40 in /  1029.3 hPa ENE 8.6 mph /  13.8 km/h 10.4 mph /  16.7 km/h 79 % 0.00 in /  0 mm
11:26 24.9 °F /  -3.9 °C 19.3 °F /  -7.1 °C 30.39 in /  1029 hPa ENE 5.8 mph /  9.3 km/h 9.0 mph /  14.5 km/h 79 % 0.00 in /  0 mm
11:31 24.9 °F /  -3.9 °C 19.0 °F /  -7.2 °C 30.39 in /  1029 hPa ENE 7.4 mph /  11.9 km/h 11.5 mph /  18.5 km/h 78 % 0.00 in /  0 mm
11:42 25.1 °F /  -3.8 °C 19.2 °F /  -7.1 °C 30.38 in /  1028.7 hPa ENE 6.0 mph /  9.7 km/h 8.0 mph /  12.9 km/h 78 % 0.00 in /  0 mm
11:54 25.3 °F /  -3.7 °C 19.4 °F /  -7 °C 30.37 in /  1028.3 hPa ENE 7.1 mph /  11.4 km/h 10.4 mph /  16.7 km/h 78 % 0.00 in /  0 mm
12:02 25.3 °F /  -3.7 °C 19.4 °F /  -7 °C 30.36 in /  1028 hPa ENE 6.9 mph /  11.1 km/h 11.0 mph /  17.7 km/h 78 % 0.00 in /  0 mm
12:08 25.3 °F /  -3.7 °C 19.4 °F /  -7 °C 30.36 in /  1028 hPa ENE 6.0 mph /  9.7 km/h 11.5 mph /  18.5 km/h 78 % 0.00 in /  0 mm
12:26 25.5 °F /  -3.6 °C 19.6 °F /  -6.9 °C 30.35 in /  1027.7 hPa ENE 5.4 mph /  8.7 km/h 9.2 mph /  14.8 km/h 78 % 0.00 in /  0 mm
12:47 26.0 °F /  -3.3 °C 19.8 °F /  -6.8 °C 30.34 in /  1027.3 hPa ENE 4.3 mph /  6.9 km/h 8.1 mph /  13 km/h 77 % 0.00 in /  0 mm
12:52 26.1 °F /  -3.3 °C 19.9 °F /  -6.7 °C 30.34 in /  1027.3 hPa NE 0.9 mph /  1.4 km/h 2.3 mph /  3.7 km/h 77 % 0.00 in /  0 mm
13:06 26.5 °F /  -3.1 °C 20.0 °F /  -6.7 °C 30.33 in /  1027 hPa North 1.5 mph /  2.4 km/h 3.5 mph /  5.6 km/h 76 % 0.00 in /  0 mm
13:12 26.6 °F /  -3 °C 20.1 °F /  -6.6 °C 30.33 in /  1027 hPa ENE 3.7 mph /  6 km/h 5.8 mph /  9.3 km/h 76 % 0.00 in /  0 mm
13:22 26.6 °F /  -3 °C 19.7 °F /  -6.8 °C 30.33 in /  1027 hPa NNE 2.4 mph /  3.9 km/h 6.9 mph /  11.1 km/h 75 % 0.00 in /  0 mm
13:28 26.7 °F /  -2.9 °C 20.1 °F /  -6.6 °C 30.32 in /  1026.6 hPa ENE 4.1 mph /  6.6 km/h 6.9 mph /  11.1 km/h 76 % 0.00 in /  0 mm
13:38 26.9 °F /  -2.8 °C 20.3 °F /  -6.5 °C 30.32 in /  1026.6 hPa ENE 3.0 mph /  4.8 km/h 4.6 mph /  7.4 km/h 76 % 0.00 in /  0 mm
14:07 26.9 °F /  -2.8 °C 20.0 °F /  -6.7 °C 30.32 in /  1026.6 hPa NE 4.0 mph /  6.4 km/h 5.8 mph /  9.3 km/h 75 % 0.00 in /  0 mm
14:13 26.9 °F /  -2.8 °C 20.3 °F /  -6.5 °C 30.32 in /  1026.6 hPa ENE 2.8 mph /  4.5 km/h 4.0 mph /  6.4 km/h 76 % 0.00 in /  0 mm
14:22 26.9 °F /  -2.8 °C 20.0 °F /  -6.7 °C 30.32 in /  1026.6 hPa ENE 2.1 mph /  3.4 km/h 3.5 mph /  5.6 km/h 75 % 0.00 in /  0 mm
14:27 26.8 °F /  -2.9 °C 19.9 °F /  -6.7 °C 30.32 in /  1026.6 hPa ENE 3.5 mph /  5.6 km/h 6.9 mph /  11.1 km/h 75 % 0.00 in /  0 mm
14:37 26.8 °F /  -2.9 °C 20.2 °F /  -6.6 °C 30.31 in /  1026.3 hPa ENE 2.9 mph /  4.7 km/h 3.5 mph /  5.6 km/h 76 % 0.00 in /  0 mm
14:51 27.0 °F /  -2.8 °C 20.7 °F /  -6.3 °C 30.31 in /  1026.3 hPa ENE 5.6 mph /  9 km/h 9.2 mph /  14.8 km/h 77 % 0.00 in /  0 mm
15:01 26.9 °F /  -2.8 °C 20.7 °F /  -6.3 °C 30.31 in /  1026.3 hPa NE 6.5 mph /  10.5 km/h 10.4 mph /  16.7 km/h 77 % 0.00 in /  0 mm
15:08 26.9 °F /  -2.8 °C 20.7 °F /  -6.3 °C 30.31 in /  1026.3 hPa ENE 4.3 mph /  6.9 km/h 8.1 mph /  13 km/h 77 % 0.00 in /  0 mm
15:20 26.9 °F /  -2.8 °C 20.7 °F /  -6.3 °C 30.31 in /  1026.3 hPa ENE 4.4 mph /  7.1 km/h 10.4 mph /  16.7 km/h 77 % 0.00 in /  0 mm
15:34 26.7 °F /  -2.9 °C 20.1 °F /  -6.6 °C 30.31 in /  1026.3 hPa ENE 6.3 mph /  10.1 km/h 9.2 mph /  14.8 km/h 76 % 0.00 in /  0 mm
15:40 26.6 °F /  -3 °C 20.1 °F /  -6.6 °C 30.32 in /  1026.6 hPa ENE 4.9 mph /  7.9 km/h 11.5 mph /  18.5 km/h 76 % 0.00 in /  0 mm
15:46 26.5 °F /  -3.1 °C 19.6 °F /  -6.9 °C 30.32 in /  1026.6 hPa NE 5.6 mph /  9 km/h 12.0 mph /  19.3 km/h 75 % 0.00 in /  0 mm
15:47 26.5 °F /  -3.1 °C 19.6 °F /  -6.9 °C 30.31 in /  1026.3 hPa ENE 4.7 mph /  7.6 km/h 11.5 mph /  18.5 km/h 75 % 0.00 in /  0 mm
15:48 26.4 °F /  -3.1 °C 19.5 °F /  -6.9 °C 30.32 in /  1026.6 hPa ENE 5.1 mph /  8.2 km/h 11.5 mph /  18.5 km/h 75 % 0.00 in /  0 mm
15:49 26.4 °F /  -3.1 °C 19.9 °F /  -6.7 °C 30.32 in /  1026.6 hPa NE 6.0 mph /  9.7 km/h 8.1 mph /  13 km/h 76 % 0.00 in /  0 mm
15:50 26.4 °F /  -3.1 °C 19.9 °F /  -6.7 °C 30.32 in /  1026.6 hPa ENE 6.0 mph /  9.7 km/h 8.1 mph /  13 km/h 76 % 0.00 in /  0 mm
15:51 26.4 °F /  -3.1 °C 19.9 °F /  -6.7 °C 30.31 in /  1026.3 hPa NE 6.4 mph /  10.3 km/h 9.2 mph /  14.8 km/h 76 % 0.00 in /  0 mm
15:52 26.4 °F /  -3.1 °C 19.9 °F /  -6.7 °C 30.31 in /  1026.3 hPa East 7.2 mph /  11.6 km/h 10.4 mph /  16.7 km/h 76 % 0.00 in /  0 mm
15:54 26.3 °F /  -3.2 °C 19.8 °F /  -6.8 °C 30.31 in /  1026.3 hPa ENE 7.7 mph /  12.4 km/h 11.0 mph /  17.7 km/h 76 % 0.00 in /  0 mm
15:57 26.2 °F /  -3.2 °C 19.7 °F /  -6.8 °C 30.31 in /  1026.3 hPa ENE 5.2 mph /  8.4 km/h 11.5 mph /  18.5 km/h 76 % 0.00 in /  0 mm
15:59 26.2 °F /  -3.2 °C 19.7 °F /  -6.8 °C 30.31 in /  1026.3 hPa ENE 6.0 mph /  9.7 km/h 9.2 mph /  14.8 km/h 76 % 0.00 in /  0 mm
16:05 26.1 °F /  -3.3 °C 19.6 °F /  -6.9 °C 30.31 in /  1026.3 hPa NE 4.7 mph /  7.6 km/h 9.2 mph /  14.8 km/h 76 % 0.00 in /  0 mm
16:06 26.1 °F /  -3.3 °C 19.6 °F /  -6.9 °C 30.31 in /  1026.3 hPa ENE 3.8 mph /  6.1 km/h 5.8 mph /  9.3 km/h 76 % 0.00 in /  0 mm
16:07 26.1 °F /  -3.3 °C 19.6 °F /  -6.9 °C 30.31 in /  1026.3 hPa NE 5.1 mph /  8.2 km/h 8.1 mph /  13 km/h 76 % 0.00 in /  0 mm
16:17 25.9 °F /  -3.4 °C 19.4 °F /  -7 °C 30.31 in /  1026.3 hPa NE 5.8 mph /  9.3 km/h 8.1 mph /  13 km/h 76 % 0.00 in /  0 mm
16:18 25.9 °F /  -3.4 °C 19.4 °F /  -7 °C 30.31 in /  1026.3 hPa ENE 6.6 mph /  10.6 km/h 9.2 mph /  14.8 km/h 76 % 0.00 in /  0 mm
16:32 25.7 °F /  -3.5 °C 19.5 °F /  -6.9 °C 30.31 in /  1026.3 hPa NE 4.1 mph /  6.6 km/h 8.1 mph /  13 km/h 77 % 0.00 in /  0 mm
16:39 25.7 °F /  -3.5 °C 19.5 °F /  -6.9 °C 30.31 in /  1026.3 hPa ENE 3.3 mph /  5.3 km/h 9.0 mph /  14.5 km/h 77 % 0.00 in /  0 mm
16:51 25.6 °F /  -3.6 °C 19.4 °F /  -7 °C 30.32 in /  1026.6 hPa ENE 5.0 mph /  8 km/h 8.1 mph /  13 km/h 77 % 0.00 in /  0 mm
16:57 25.6 °F /  -3.6 °C 19.7 °F /  -6.8 °C 30.32 in /  1026.6 hPa NNE 3.3 mph /  5.3 km/h 6.0 mph /  9.7 km/h 78 % 0.00 in /  0 mm
17:07 25.4 °F /  -3.7 °C 19.2 °F /  -7.1 °C 30.32 in /  1026.6 hPa ENE 7.2 mph /  11.6 km/h 11.5 mph /  18.5 km/h 77 % 0.00 in /  0 mm
17:19 25.3 °F /  -3.7 °C 19.4 °F /  -7 °C 30.31 in /  1026.3 hPa ENE 4.0 mph /  6.4 km/h 7.0 mph /  11.3 km/h 78 % 0.00 in /  0 mm
17:36 25.3 °F /  -3.7 °C 19.4 °F /  -7 °C 30.32 in /  1026.6 hPa NNE 0.6 mph /  1 km/h 2.3 mph /  3.7 km/h 78 % 0.00 in /  0 mm
17:43 25.3 °F /  -3.7 °C 19.4 °F /  -7 °C 30.32 in /  1026.6 hPa ENE 5.2 mph /  8.4 km/h 6.9 mph /  11.1 km/h 78 % 0.00 in /  0 mm
17:58 25.1 °F /  -3.8 °C 18.9 °F /  -7.3 °C 30.32 in /  1026.6 hPa NE 2.4 mph /  3.9 km/h 4.6 mph /  7.4 km/h 77 % 0.00 in /  0 mm
18:04 25.1 °F /  -3.8 °C 18.9 °F /  -7.3 °C 30.32 in /  1026.6 hPa NNE 2.4 mph /  3.9 km/h 4.6 mph /  7.4 km/h 77 % 0.00 in /  0 mm
18:13 25.1 °F /  -3.8 °C 18.9 °F /  -7.3 °C 30.32 in /  1026.6 hPa ENE 2.8 mph /  4.5 km/h 8.1 mph /  13 km/h 77 % 0.00 in /  0 mm
18:21 25.2 °F /  -3.8 °C 19.0 °F /  -7.2 °C 30.31 in /  1026.3 hPa ENE 2.6 mph /  4.2 km/h 6.9 mph /  11.1 km/h 77 % 0.00 in /  0 mm
18:29 25.2 °F /  -3.8 °C 19.3 °F /  -7.1 °C 30.31 in /  1026.3 hPa ENE 3.5 mph /  5.6 km/h 9.0 mph /  14.5 km/h 78 % 0.00 in /  0 mm
18:36 25.1 °F /  -3.8 °C 18.9 °F /  -7.3 °C 30.30 in /  1026 hPa East 5.1 mph /  8.2 km/h 6.9 mph /  11.1 km/h 77 % 0.00 in /  0 mm
18:44 25.0 °F /  -3.9 °C 18.8 °F /  -7.3 °C 30.30 in /  1026 hPa ENE 3.4 mph /  5.5 km/h 6.9 mph /  11.1 km/h 77 % 0.00 in /  0 mm
18:50 25.0 °F /  -3.9 °C 18.8 °F /  -7.3 °C 30.30 in /  1026 hPa ENE 4.8 mph /  7.7 km/h 9.2 mph /  14.8 km/h 77 % 0.00 in /  0 mm
19:23 25.0 °F /  -3.9 °C 18.8 °F /  -7.3 °C 30.29 in /  1025.6 hPa East 7.3 mph /  11.7 km/h 10.4 mph /  16.7 km/h 77 % 0.00 in /  0 mm
19:47 24.9 °F /  -3.9 °C 18.7 °F /  -7.4 °C 30.31 in /  1026.3 hPa ENE 5.6 mph /  9 km/h 9.2 mph /  14.8 km/h 77 % 0.00 in /  0 mm
19:52 24.9 °F /  -3.9 °C 19.0 °F /  -7.2 °C 30.31 in /  1026.3 hPa ENE 5.0 mph /  8 km/h 8.1 mph /  13 km/h 78 % 0.00 in /  0 mm
20:03 24.8 °F /  -4 °C 18.9 °F /  -7.3 °C 30.31 in /  1026.3 hPa ENE 6.3 mph /  10.1 km/h 9.2 mph /  14.8 km/h 78 % 0.00 in /  0 mm
20:16 24.8 °F /  -4 °C 18.9 °F /  -7.3 °C 30.30 in /  1026 hPa ENE 5.4 mph /  8.7 km/h 9.2 mph /  14.8 km/h 78 % 0.00 in /  0 mm
20:29 24.8 °F /  -4 °C 19.2 °F /  -7.1 °C 30.30 in /  1026 hPa ENE 5.4 mph /  8.7 km/h 10.4 mph /  16.7 km/h 79 % 0.00 in /  0 mm
20:34 24.7 °F /  -4.1 °C 19.1 °F /  -7.2 °C 30.30 in /  1026 hPa ENE 4.9 mph /  7.9 km/h 6.9 mph /  11.1 km/h 79 % 0.00 in /  0 mm
20:45 24.7 °F /  -4.1 °C 19.1 °F /  -7.2 °C 30.30 in /  1026 hPa ENE 6.5 mph /  10.5 km/h 10.0 mph /  16.1 km/h 79 % 0.00 in /  0 mm
20:58 24.7 °F /  -4.1 °C 19.4 °F /  -7 °C 30.28 in /  1025.3 hPa ENE 5.1 mph /  8.2 km/h 8.1 mph /  13 km/h 80 % 0.00 in /  0 mm
21:04 24.8 °F /  -4 °C 19.5 °F /  -6.9 °C 30.28 in /  1025.3 hPa ENE 6.2 mph /  10 km/h 9.2 mph /  14.8 km/h 80 % 0.00 in /  0 mm
21:16 24.9 °F /  -3.9 °C 19.6 °F /  -6.9 °C 30.28 in /  1025.3 hPa ENE 6.7 mph /  10.8 km/h 9.0 mph /  14.5 km/h 80 % 0.00 in /  0 mm
21:22 24.9 °F /  -3.9 °C 19.6 °F /  -6.9 °C 30.28 in /  1025.3 hPa ENE 7.1 mph /  11.4 km/h 11.5 mph /  18.5 km/h 80 % 0.00 in /  0 mm
21:28 24.9 °F /  -3.9 °C 19.6 °F /  -6.9 °C 30.28 in /  1025.3 hPa ENE 7.9 mph /  12.7 km/h 9.2 mph /  14.8 km/h 80 % 0.00 in /  0 mm
21:48 24.9 °F /  -3.9 °C 19.6 °F /  -6.9 °C 30.26 in /  1024.6 hPa East 8.2 mph /  13.2 km/h 10.4 mph /  16.7 km/h 80 % 0.00 in /  0 mm
21:58 25.0 °F /  -3.9 °C 20.0 °F /  -6.7 °C 30.27 in /  1024.9 hPa East 6.5 mph /  10.5 km/h 9.2 mph /  14.8 km/h 81 % 0.00 in /  0 mm
22:15 25.1 °F /  -3.8 °C 20.1 °F /  -6.6 °C 30.28 in /  1025.3 hPa ENE 4.1 mph /  6.6 km/h 5.0 mph /  8 km/h 81 % 0.00 in /  0 mm
22:31 25.2 °F /  -3.8 °C 20.5 °F /  -6.4 °C 30.28 in /  1025.3 hPa ENE 4.5 mph /  7.2 km/h 6.9 mph /  11.1 km/h 82 % 0.00 in /  0 mm
22:40 25.2 °F /  -3.8 °C 20.8 °F /  -6.2 °C 30.27 in /  1024.9 hPa East 4.4 mph /  7.1 km/h 8.1 mph /  13 km/h 83 % 0.00 in /  0 mm
22:45 25.3 °F /  -3.7 °C 20.9 °F /  -6.2 °C 30.26 in /  1024.6 hPa ENE 3.9 mph /  6.3 km/h 6.0 mph /  9.7 km/h 83 % 0.00 in /  0 mm
22:50 25.4 °F /  -3.7 °C 21.0 °F /  -6.1 °C 30.26 in /  1024.6 hPa ENE 3.8 mph /  6.1 km/h 6.9 mph /  11.1 km/h 83 % 0.00 in /  0 mm
22:58 25.6 °F /  -3.6 °C 21.4 °F /  -5.9 °C 30.27 in /  1024.9 hPa ENE 3.9 mph /  6.3 km/h 6.9 mph /  11.1 km/h 84 % 0.00 in /  0 mm
23:03 25.7 °F /  -3.5 °C 21.5 °F /  -5.8 °C 30.27 in /  1024.9 hPa ENE 4.5 mph /  7.2 km/h 5.0 mph /  8 km/h 84 % 0.00 in /  0 mm
23:10 25.8 °F /  -3.4 °C 21.9 °F /  -5.6 °C 30.26 in /  1024.6 hPa ENE 3.8 mph /  6.1 km/h 9.0 mph /  14.5 km/h 85 % 0.00 in /  0 mm
23:11 25.8 °F /  -3.4 °C 21.9 °F /  -5.6 °C 30.26 in /  1024.6 hPa ENE 4.9 mph /  7.9 km/h 9.2 mph /  14.8 km/h 85 % 0.00 in /  0 mm
23:21 26.0 °F /  -3.3 °C 22.1 °F /  -5.5 °C 30.26 in /  1024.6 hPa ENE 5.5 mph /  8.9 km/h 8.0 mph /  12.9 km/h 85 % 0.00 in /  0 mm
23:29 26.1 °F /  -3.3 °C 22.2 °F /  -5.4 °C 30.25 in /  1024.3 hPa ENE 5.0 mph /  8 km/h 8.1 mph /  13 km/h 85 % 0.00 in /  0 mm
23:36 26.2 °F /  -3.2 °C 22.3 °F /  -5.4 °C 30.25 in /  1024.3 hPa ENE 2.9 mph /  4.7 km/h 3.5 mph /  5.6 km/h 85 % 0.00 in /  0 mm
23:49 26.4 °F /  -3.1 °C 22.8 °F /  -5.1 °C 30.26 in /  1024.6 hPa ENE 4.2 mph /  6.8 km/h 7.0 mph /  11.3 km/h 86 % 0.00 in /  0 mm
23:56 26.4 °F /  -3.1 °C 22.8 °F /  -5.1 °C 30.25 in /  1024.3 hPa ENE 3.6 mph /  5.8 km/h 4.6 mph /  7.4 km/h 86 % 0.00 in /  0 mm
Crab Meadow Weather
Compliments of Weather Underground - 2.25 mb

Script developed by  Jim McMurry - jmcmurry@mwt.net Adapted for the template by  Wim van der Kuil - Leuven-Template.eu

Extremes: The longest period without measurable rainfall in the United States was 767 days at Bagdad, California.